MMUN METAR and TAF | Updated Today

MMUN METAR

Cancún International Airport

Observation time: 30 min. ago

MMUN 260240Z 07004KT 7SM FEW015 SCT250 26/23 A3002 RMK SLP167 52011 915 8/508

Need help? Read our tutorial on how to read METARs or read the parsed version below.

Cancún International Airport (MMUN) METAR

  • Weather conditions on Sun, 26 Jun 2022 02:40:00 +0000 (30 min. ago):
  • Present conditions: Dry
  • Clouds: A few at 457 meters; scattered at 7620 meters
  • Visibility: 11265 meters
  • Wind: 70 degrees at 4 knots
  • Temperature: 26 celsius
  • Dew point: 23 celsius
  • Pressure: 30.02 inHg
  • Remarks: SLP167 52011 915 8/508


Useful to know...

MMUN TAF

Cancún International Airport

TAF MMUN 252248Z 2600/2706 12010KT P6SM SCT015 SCT250 TX31/2619Z TN24/2612Z FM261600 12010KT P6SM SCT015 FM270300 12005KT P6SM SCT015
Observation time: 4:22 hr. ago
Need help? Read our tutorial on how to read TAFs or read the parsed version below.

Parsed version of TAF for Cancún International Airport (MMUN)

  • From 26 June at 00:00 UTC, to day 27 of the month at 06:00 UTC
  • Clouds: Scattered at 457 meters; scattered at 7620 meters
  • Wind: 120 degrees at 10
  • From day 26 of the month at 16:00 UTC
  • Clouds: Scattered at 457 meters
  • Wind: 120 degrees at 10
  • From day 27 of the month at 03:00 UTC
  • Clouds: Scattered at 457 meters
  • Wind: 120 degrees at 5